TAF Text Data
IDs:
Format:
Raw Decoded Include METAR

Data at: 1741 UTC 20 May 2022

VYYY 201730Z 26004KT 6000 -RA BKN012 FEW018CB OVC100 25/25 Q1003

TAF VYYY 201100Z 2012/2112 23008KT 6000 BKN014 FEW018CB OVC090
  TEMPO 2023/2105 19007G15KT 4000 -RA/-SHRA
  BECMG 2107/2110 22005G20KT 160V250 3000 RA/-SHRA BKN010 FEW015CB OVC090